Time;durP1;ratioP1;P1;durP2;ratioP2;P2;SDS_P1;SDS_P2;PMS_P1;PMS_P2;Temp;Humidity;BMP_temperature;BMP_pressure;BME280_temperature;BME280_humidity;BME280_pressure;Samples;Min_cycle;Max_cycle;Signal;HPM_P1;HPM_P2
2023/01/06 00:01:15;;;;;;;59.97;16.52;;;7.10;99.90;;;;;;5027611;28;20029;-69
2023/01/06 00:03:40;;;;;;;57.47;16.33;;;7.10;99.90;;;;;;5031821;28;20048;-70
2023/01/06 00:06:08;;;;;;;59.05;15.27;;;7.10;99.90;;;;;;5027205;28;20029;-70
2023/01/06 00:08:34;;;;;;;53.88;16.67;;;7.20;99.90;;;;;;5030122;28;20049;-69
2023/01/06 00:11:08;;;;;;;56.40;15.57;;;7.20;99.90;;;;;;5031734;28;20120;-70
2023/01/06 00:13:34;;;;;;;58.50;15.38;;;7.20;99.90;;;;;;5030774;28;20053;-70
2023/01/06 00:16:14;;;;;;;68.43;14.65;;;7.20;99.90;;;;;;5033557;28;20481;-68
2023/01/06 00:18:41;;;;;;;54.47;14.98;;;7.20;99.90;;;;;;5032506;28;20047;-70
2023/01/06 00:21:07;;;;;;;50.80;14.68;;;7.30;99.90;;;;;;5027525;28;20092;-69
2023/01/06 00:23:33;;;;;;;47.70;13.80;;;7.30;99.90;;;;;;5030761;28;20033;-70
2023/01/06 00:25:59;;;;;;;52.70;13.68;;;7.30;99.90;;;;;;5032597;28;20041;-69
2023/01/06 00:28:25;;;;;;;44.10;12.95;;;7.30;99.90;;;;;;5029891;28;20033;-69
2023/01/06 00:30:50;;;;;;;37.30;11.80;;;7.40;99.90;;;;;;5032777;28;20033;-69
2023/01/06 00:33:16;;;;;;;42.08;13.68;;;7.40;99.90;;;;;;5019869;28;20037;-69
2023/01/06 00:35:41;;;;;;;42.10;11.80;;;7.40;99.90;;;;;;5031746;28;20091;-69
2023/01/06 00:38:07;;;;;;;39.78;11.98;;;7.40;99.90;;;;;;5030055;28;20045;-69
2023/01/06 00:40:32;;;;;;;43.13;11.90;;;7.40;99.90;;;;;;5031524;28;20389;-69
2023/01/06 00:42:58;;;;;;;35.22;10.68;;;7.40;99.90;;;;;;5033089;28;20059;-69
2023/01/06 00:45:23;;;;;;;35.92;11.23;;;7.50;99.90;;;;;;5031740;28;20484;-70
2023/01/06 00:47:49;;;;;;;44.45;12.13;;;7.50;99.90;;;;;;5018704;28;20052;-69
2023/01/06 00:50:14;;;;;;;38.05;11.40;;;7.60;99.90;;;;;;5027060;28;20075;-70
2023/01/06 00:52:40;;;;;;;36.20;12.05;;;7.60;99.90;;;;;;5029799;28;20049;-71
2023/01/06 00:55:06;;;;;;;42.22;11.82;;;7.60;99.90;;;;;;5024432;28;20036;-69
2023/01/06 00:57:31;;;;;;;54.13;12.40;;;7.60;99.90;;;;;;5030574;28;20059;-69
2023/01/06 00:59:57;;;;;;;49.17;13.57;;;7.60;99.90;;;;;;5019328;28;20033;-70
2023/01/06 01:02:22;;;;;;;46.78;12.95;;;7.60;99.90;;;;;;5031516;28;20052;-69
2023/01/06 01:04:48;;;;;;;47.83;13.98;;;7.60;99.90;;;;;;5027631;28;20084;-69
2023/01/06 01:07:13;;;;;;;46.03;13.50;;;7.60;99.90;;;;;;5029053;28;20025;-69
2023/01/06 01:09:39;;;;;;;63.08;15.98;;;7.60;99.90;;;;;;5027918;28;20541;-69
2023/01/06 01:12:11;;;;;;;59.40;16.00;;;7.60;99.90;;;;;;5031835;28;20041;-69
2023/01/06 01:14:46;;;;;;;59.28;16.05;;;7.70;99.90;;;;;;5030605;28;20025;-69
2023/01/06 01:17:30;;;;;;;50.55;16.85;;;7.70;99.90;;;;;;5028950;28;20036;-70
2023/01/06 01:19:58;;;;;;;57.40;16.60;;;7.70;99.90;;;;;;5023395;28;20033;-69
2023/01/06 01:22:25;;;;;;;54.50;16.17;;;7.70;99.90;;;;;;5027843;28;20493;-69
2023/01/06 01:24:51;;;;;;;52.97;16.38;;;7.70;99.90;;;;;;5026522;28;20037;-69
2023/01/06 01:27:17;;;;;;;49.50;16.08;;;7.70;99.90;;;;;;5030411;28;20117;-69
2023/01/06 01:29:43;;;;;;;58.63;17.73;;;7.70;99.90;;;;;;5027248;28;20119;-70
2023/01/06 01:32:09;;;;;;;47.65;17.17;;;7.80;99.90;;;;;;5031700;28;20097;-69
2023/01/06 01:34:34;;;;;;;59.47;17.38;;;7.80;99.90;;;;;;5029711;28;20072;-69
2023/01/06 01:37:00;;;;;;;57.88;16.13;;;7.80;99.90;;;;;;5031152;28;20502;-69
2023/01/06 01:39:27;;;;;;;58.35;17.60;;;7.80;99.90;;;;;;5030407;28;20482;-70
2023/01/06 01:41:54;;;;;;;62.45;18.40;;;7.80;99.90;;;;;;5032060;28;20071;-70
2023/01/06 01:44:49;;;;;;;57.80;18.35;;;7.80;99.90;;;;;;5030703;28;20536;-69
2023/01/06 01:47:20;;;;;;;55.67;17.10;;;7.90;99.90;;;;;;5028459;28;20025;-70
2023/01/06 01:49:47;;;;;;;;;;;7.80;99.90;;;;;;5028128;28;20470;-69
2023/01/06 01:52:14;;;;;;;54.70;17.35;;;7.80;99.90;;;;;;5028517;28;19908;-69
2023/01/06 01:54:40;;;;;;;69.70;19.23;;;7.80;99.90;;;;;;5025396;28;20034;-69
2023/01/06 01:57:15;;;;;;;68.25;21.02;;;7.80;99.90;;;;;;5020620;28;20075;-69
2023/01/06 01:59:43;;;;;;;64.32;20.05;;;7.80;99.90;;;;;;5026158;28;20143;-69
2023/01/06 02:02:09;;;;;;;76.88;20.52;;;7.90;99.90;;;;;;5027573;28;20030;-69
2023/01/06 02:04:40;;;;;;;75.07;19.85;;;7.90;99.90;;;;;;5025891;28;20091;-69
2023/01/06 02:07:05;;;;;;;;;;;7.90;99.90;;;;;;5025303;28;20048;-69
2023/01/06 02:10:00;;;;;;;74.18;19.23;;;7.90;99.90;;;;;;5026572;28;19914;-69
2023/01/06 02:12:25;;;;;;;73.03;19.67;;;8.00;99.90;;;;;;5025740;28;20137;-69
2023/01/06 02:14:51;;;;;;;92.70;23.10;;;8.00;99.90;;;;;;5029551;28;20487;-70
2023/01/06 02:17:38;;;;;;;90.95;23.05;;;8.00;99.90;;;;;;5025670;28;20459;-69
2023/01/06 02:20:26;;;;;;;98.18;23.98;;;8.00;99.90;;;;;;5022183;28;20040;-69
2023/01/06 02:23:32;;;;;;;91.78;23.38;;;8.10;99.90;;;;;;5030239;28;20119;-69
2023/01/06 02:26:33;;;;;;;99.90;24.38;;;8.10;99.90;;;;;;5027019;28;20393;-69
2023/01/06 02:29:32;;;;;;;73.03;22.85;;;8.10;99.90;;;;;;5026722;28;20442;-69
2023/01/06 02:32:24;;;;;;;63.78;19.77;;;8.10;99.90;;;;;;5021326;28;20120;-69
2023/01/06 02:35:00;;;;;;;64.47;19.20;;;8.10;99.90;;;;;;5030421;28;20026;-70
2023/01/06 02:37:41;;;;;;;60.80;19.27;;;8.10;99.90;;;;;;5034341;28;20086;-70
2023/01/06 02:40:25;;;;;;;71.05;20.70;;;8.20;99.90;;;;;;5033055;28;20033;-69
2023/01/06 02:43:27;;;;;;;67.93;19.95;;;8.20;99.90;;;;;;5034848;28;20478;-70
2023/01/06 02:46:20;;;;;;;74.68;21.33;;;8.20;99.90;;;;;;5030212;28;20484;-69
2023/01/06 02:49:05;;;;;;;66.80;19.85;;;8.20;99.90;;;;;;5032290;28;20037;-70
2023/01/06 02:51:43;;;;;;;70.85;20.10;;;8.20;99.90;;;;;;5033627;28;20424;-69
2023/01/06 02:54:39;;;;;;;64.88;20.20;;;8.20;99.90;;;;;;5031249;28;20025;-69
2023/01/06 02:57:28;;;;;;;74.30;21.33;;;8.20;99.90;;;;;;5029213;28;20037;-69
2023/01/06 03:00:20;;;;;;;65.18;20.52;;;8.20;99.90;;;;;;5032359;28;20071;-70
2023/01/06 03:02:54;;;;;;;71.53;22.30;;;8.30;99.90;;;;;;5021703;28;20037;-69
2023/01/06 03:05:23;;;;;;;75.63;22.55;;;8.30;99.90;;;;;;5028757;28;20025;-69
2023/01/06 03:07:50;;;;;;;81.85;24.20;;;8.30;99.90;;;;;;5032980;28;20017;-70
2023/01/06 03:10:18;;;;;;;78.43;24.20;;;8.30;99.90;;;;;;5031636;28;20549;-69
2023/01/06 03:12:52;;;;;;;90.78;25.95;;;8.30;99.90;;;;;;5033397;28;20037;-70
2023/01/06 03:15:17;;;;;;;84.78;25.25;;;8.30;99.90;;;;;;5029827;28;20091;-69
2023/01/06 03:17:43;;;;;;;87.22;24.48;;;8.30;99.90;;;;;;5033717;28;20425;-70
2023/01/06 03:20:11;;;;;;;89.63;25.13;;;8.40;99.90;;;;;;5029341;28;20100;-70
2023/01/06 03:22:37;;;;;;;88.47;25.52;;;8.40;99.90;;;;;;5031336;28;20471;-72
2023/01/06 03:25:05;;;;;;;84.40;24.40;;;8.40;99.90;;;;;;5040832;28;20029;-70
2023/01/06 03:27:31;;;;;;;82.10;24.02;;;8.40;99.90;;;;;;5031863;28;20474;-70
2023/01/06 03:29:56;;;;;;;76.18;21.83;;;8.40;99.90;;;;;;5030758;28;20037;-70
2023/01/06 03:32:51;;;;;;;75.53;25.33;;;8.40;99.90;;;;;;5031311;28;20496;-69
2023/01/06 03:35:32;;;;;;;76.50;23.48;;;8.40;99.90;;;;;;5030254;28;20037;-69
2023/01/06 03:38:21;;;;;;;91.05;24.73;;;8.40;99.90;;;;;;5031072;28;20029;-69
2023/01/06 03:40:56;;;;;;;80.93;24.27;;;8.50;99.90;;;;;;5033443;28;20395;-69
2023/01/06 03:43:31;;;;;;;78.03;23.05;;;8.50;99.90;;;;;;5033480;28;20108;-69
2023/01/06 03:46:19;;;;;;;82.50;22.90;;;8.50;99.90;;;;;;5032386;28;20029;-69
2023/01/06 03:49:08;;;;;;;93.30;23.55;;;8.50;99.90;;;;;;5031650;28;20072;-70
2023/01/06 03:51:45;;;;;;;76.35;21.90;;;8.50;99.90;;;;;;5025166;28;20167;-69
2023/01/06 03:54:23;;;;;;;71.00;22.80;;;8.50;99.90;;;;;;5031508;28;20124;-70
2023/01/06 03:56:54;;;;;;;70.65;22.10;;;8.50;99.90;;;;;;5025868;28;20042;-69
2023/01/06 03:59:24;;;;;;;76.45;22.00;;;8.50;99.90;;;;;;5026679;28;20053;-70
2023/01/06 04:01:50;;;;;;;76.97;22.85;;;8.50;99.90;;;;;;5030478;28;20477;-69
2023/01/06 04:04:17;;;;;;;68.75;21.65;;;8.50;99.90;;;;;;5028741;28;20029;-69
2023/01/06 04:06:43;;;;;;;68.07;23.15;;;8.60;99.90;;;;;;5031503;28;20714;-69
2023/01/06 04:09:09;;;;;;;71.50;22.25;;;8.60;99.90;;;;;;5030624;28;20440;-69
2023/01/06 04:14:19;;;;;;;67.80;21.55;;;8.60;99.90;;;;;;5032865;28;20366;-70
2023/01/06 04:16:44;;;;;;;71.95;22.20;;;8.60;99.90;;;;;;5029791;28;20034;-71
2023/01/06 04:19:10;;;;;;;75.65;22.00;;;8.60;99.90;;;;;;5025253;28;20095;-71
2023/01/06 04:21:35;;;;;;;71.60;22.73;;;8.60;99.90;;;;;;5031892;28;20045;-70
2023/01/06 04:24:01;;;;;;;59.78;22.08;;;8.60;99.90;;;;;;5029162;28;20029;-70
2023/01/06 04:26:26;;;;;;;70.18;24.08;;;8.60;99.90;;;;;;5028732;28;20401;-70
2023/01/06 04:28:51;;;;;;;69.05;23.15;;;8.60;99.90;;;;;;5025849;28;20033;-70
2023/01/06 04:31:17;;;;;;;65.25;23.50;;;8.70;99.90;;;;;;5026874;28;20469;-70
2023/01/06 04:33:42;;;;;;;69.13;22.90;;;8.70;99.90;;;;;;5028471;28;20048;-69
2023/01/06 04:36:08;;;;;;;57.95;21.42;;;8.80;99.90;;;;;;5030173;28;20079;-68
2023/01/06 04:38:33;;;;;;;66.20;22.27;;;8.70;99.90;;;;;;5036575;28;20033;-69
2023/01/06 04:40:59;;;;;;;59.75;21.85;;;8.70;99.90;;;;;;5031856;28;20056;-69
2023/01/06 04:43:25;;;;;;;59.40;22.83;;;8.70;99.90;;;;;;5029568;28;20037;-69
2023/01/06 04:45:50;;;;;;;54.28;21.30;;;8.70;99.90;;;;;;5030769;28;20038;-70
2023/01/06 04:48:16;;;;;;;60.08;22.45;;;8.70;99.90;;;;;;5027708;28;20037;-69
2023/01/06 04:50:41;;;;;;;57.03;21.65;;;8.70;99.90;;;;;;5030247;28;20029;-69
2023/01/06 04:53:10;;;;;;;58.92;20.08;;;8.70;99.90;;;;;;5028905;28;20030;-69
2023/01/06 04:55:39;;;;;;;55.63;20.83;;;8.70;99.90;;;;;;5029886;28;21046;-69
2023/01/06 04:58:05;;;;;;;59.65;20.98;;;8.70;99.90;;;;;;5024288;28;20048;-70
2023/01/06 05:00:30;;;;;;;57.17;21.42;;;8.70;99.90;;;;;;5027619;28;20034;-69
2023/01/06 05:02:56;;;;;;;62.85;22.27;;;8.60;99.90;;;;;;5027032;28;20076;-69
2023/01/06 05:05:21;;;;;;;56.60;20.73;;;8.60;99.90;;;;;;5027612;28;20569;-69
2023/01/06 05:07:46;;;;;;;50.85;20.90;;;8.70;99.90;;;;;;5029761;28;20096;-69
2023/01/06 05:10:12;;;;;;;46.88;20.02;;;8.60;99.90;;;;;;5025364;28;20501;-69
2023/01/06 05:12:37;;;;;;;54.05;19.70;;;8.70;99.90;;;;;;5030352;28;20048;-69
2023/01/06 05:15:04;;;;;;;54.85;19.20;;;8.70;99.90;;;;;;5029564;28;20030;-69
2023/01/06 05:17:29;;;;;;;51.95;19.63;;;8.70;99.90;;;;;;5024140;28;20046;-69
2023/01/06 05:19:55;;;;;;;52.53;20.50;;;8.70;99.90;;;;;;5014967;28;20113;-69
2023/01/06 05:22:20;;;;;;;48.75;18.08;;;8.70;99.90;;;;;;5020202;28;20107;-69
2023/01/06 05:24:46;;;;;;;49.25;19.27;;;8.70;99.90;;;;;;5028129;28;20466;-70
2023/01/06 05:27:11;;;;;;;45.90;18.40;;;8.70;99.90;;;;;;5023758;28;20040;-69
2023/01/06 05:29:37;;;;;;;53.78;19.90;;;8.70;99.90;;;;;;5026575;28;20033;-70
2023/01/06 05:32:03;;;;;;;48.67;19.85;;;8.70;99.90;;;;;;5026672;28;20043;-71
2023/01/06 05:34:29;;;;;;;49.22;20.50;;;8.70;99.90;;;;;;5025523;28;20532;-71
2023/01/06 05:36:55;;;;;;;46.75;18.85;;;8.70;99.90;;;;;;5030829;28;20544;-70
2023/01/06 05:39:21;;;;;;;51.38;20.27;;;8.70;99.90;;;;;;5024475;28;20049;-71
2023/01/06 05:41:46;;;;;;;45.15;19.13;;;8.70;99.90;;;;;;5031595;28;20041;-71
2023/01/06 05:44:12;;;;;;;51.13;19.52;;;8.70;99.90;;;;;;5030526;28;20033;-71
2023/01/06 05:46:37;;;;;;;44.08;20.15;;;8.70;99.90;;;;;;5029231;28;20049;-71
2023/01/06 05:49:03;;;;;;;47.85;20.08;;;8.70;99.90;;;;;;5026211;28;20036;-71
2023/01/06 05:51:28;;;;;;;44.83;19.10;;;8.70;99.90;;;;;;5027519;28;20389;-71
2023/01/06 05:53:54;;;;;;;41.22;19.02;;;8.70;99.90;;;;;;5026665;28;20024;-71
2023/01/06 05:56:20;;;;;;;42.63;19.27;;;8.70;99.90;;;;;;5030424;28;20025;-71
2023/01/06 05:58:48;;;;;;;43.35;19.90;;;8.70;99.90;;;;;;5026463;28;20041;-71
2023/01/06 06:01:17;;;;;;;38.95;19.80;;;8.80;99.90;;;;;;5028024;28;20021;-71
2023/01/06 06:03:43;;;;;;;45.83;20.02;;;8.70;99.90;;;;;;5021493;28;20121;-71
2023/01/06 06:06:08;;;;;;;46.65;20.60;;;8.70;99.90;;;;;;5017925;28;20070;-71
2023/01/06 06:08:34;;;;;;;44.33;19.77;;;8.80;99.90;;;;;;5023497;28;20088;-70
2023/01/06 06:11:07;;;;;;;40.25;19.38;;;8.70;99.90;;;;;;5017053;28;20036;-70
2023/01/06 06:13:33;;;;;;;42.90;19.67;;;8.70;99.90;;;;;;5023656;28;20066;-70
2023/01/06 06:16:10;;;;;;;36.63;19.33;;;8.80;99.90;;;;;;5024622;28;20025;-71
2023/01/06 06:18:41;;;;;;;44.80;19.80;;;8.70;99.90;;;;;;5027041;28;20032;-71
2023/01/06 06:21:08;;;;;;;42.92;19.63;;;8.70;99.90;;;;;;5026555;28;20484;-70
2023/01/06 06:23:34;;;;;;;44.40;19.85;;;8.70;99.90;;;;;;5037262;28;20095;-70
2023/01/06 06:26:00;;;;;;;43.28;20.33;;;8.80;99.90;;;;;;5028256;28;20420;-70
2023/01/06 06:28:28;;;;;;;43.28;20.13;;;8.80;99.90;;;;;;5023550;28;20556;-70
2023/01/06 06:30:53;;;;;;;41.13;20.27;;;8.80;99.90;;;;;;5020444;28;20030;-70
2023/01/06 06:33:19;;;;;;;38.75;20.27;;;8.70;99.90;;;;;;5022066;28;20034;-70
2023/01/06 06:35:54;;;;;;;42.38;20.10;;;8.80;99.90;;;;;;5016503;28;20033;-70
2023/01/06 06:38:19;;;;;;;41.50;20.10;;;8.70;99.90;;;;;;5020091;28;20378;-70
2023/01/06 06:40:44;;;;;;;46.28;20.52;;;8.80;99.90;;;;;;5029615;28;20116;-70
2023/01/06 06:43:10;;;;;;;45.70;20.77;;;8.80;99.90;;;;;;5023832;28;20499;-70
2023/01/06 06:45:35;;;;;;;42.13;19.77;;;8.80;99.90;;;;;;5025091;28;20083;-70
2023/01/06 06:48:01;;;;;;;45.47;20.60;;;8.80;99.90;;;;;;5024004;28;20029;-70
2023/01/06 06:50:26;;;;;;;40.03;19.95;;;8.80;99.90;;;;;;5029853;28;20511;-70
2023/01/06 06:52:54;;;;;;;39.40;19.80;;;8.70;99.90;;;;;;5026046;28;20033;-70
2023/01/06 06:55:19;;;;;;;40.80;20.27;;;8.70;99.90;;;;;;5029319;28;20041;-70
2023/01/06 06:57:45;;;;;;;47.38;19.02;;;8.80;99.90;;;;;;5029457;28;20033;-70
2023/01/06 07:00:10;;;;;;;36.20;19.50;;;8.70;99.90;;;;;;5026233;28;20048;-70
2023/01/06 07:02:36;;;;;;;45.05;20.88;;;8.70;99.90;;;;;;5027224;28;20474;-70
2023/01/06 07:05:02;;;;;;;38.95;19.88;;;8.80;99.90;;;;;;5028118;28;20060;-70
2023/01/06 07:07:27;;;;;;;44.67;19.13;;;8.70;99.90;;;;;;5018984;28;20382;-70
2023/01/06 07:09:53;;;;;;;39.72;19.77;;;8.70;99.90;;;;;;5033607;28;20048;-70
2023/01/06 07:12:18;;;;;;;39.38;18.63;;;8.80;99.90;;;;;;5033427;28;20025;-70
2023/01/06 07:14:44;;;;;;;39.03;20.55;;;8.80;99.90;;;;;;5028797;28;20030;-70
2023/01/06 07:17:09;;;;;;;38.05;19.10;;;8.80;99.90;;;;;;5020420;28;20446;-70
2023/01/06 07:19:34;;;;;;;42.63;18.77;;;8.70;99.90;;;;;;5028890;28;20037;-70
2023/01/06 07:22:00;;;;;;;36.60;19.15;;;8.80;99.90;;;;;;5027148;28;20405;-70
2023/01/06 07:24:25;;;;;;;39.15;18.67;;;8.80;99.90;;;;;;5033210;28;20048;-70
2023/01/06 07:26:51;;;;;;;35.83;18.60;;;8.70;99.90;;;;;;5032516;28;20026;-70
2023/01/06 07:29:16;;;;;;;35.42;19.05;;;8.80;99.90;;;;;;5032556;28;20031;-70
2023/01/06 07:31:42;;;;;;;32.70;17.85;;;8.80;99.90;;;;;;5025360;28;20135;-70
2023/01/06 07:34:07;;;;;;;34.63;16.58;;;8.80;99.90;;;;;;5024892;28;20041;-70
2023/01/06 07:36:33;;;;;;;31.15;16.65;;;8.80;99.90;;;;;;5025102;28;20033;-70
2023/01/06 07:38:58;;;;;;;29.30;17.90;;;8.80;99.90;;;;;;5027770;28;20064;-70
2023/01/06 07:41:24;;;;;;;30.65;17.08;;;8.80;99.90;;;;;;5026915;28;20030;-70
2023/01/06 07:43:49;;;;;;;30.00;17.27;;;8.80;99.90;;;;;;5028935;28;20116;-70
2023/01/06 07:46:14;;;;;;;28.33;16.10;;;8.80;99.90;;;;;;5028693;28;20037;-70
2023/01/06 07:48:40;;;;;;;27.80;16.80;;;8.80;99.90;;;;;;5025319;28;20102;-70
2023/01/06 07:51:06;;;;;;;23.67;16.40;;;8.80;99.90;;;;;;5025557;28;20138;-70
2023/01/06 07:53:31;;;;;;;23.80;15.45;;;8.80;99.90;;;;;;5031352;28;20039;-70
2023/01/06 07:55:57;;;;;;;31.13;15.85;;;8.80;99.90;;;;;;5027649;28;20036;-70
2023/01/06 07:58:22;;;;;;;27.27;15.93;;;8.80;99.90;;;;;;5031724;28;20041;-71
2023/01/06 08:00:49;;;;;;;24.45;14.98;;;8.80;99.90;;;;;;5030616;28;20449;-70
2023/01/06 08:03:14;;;;;;;27.05;16.38;;;8.80;99.90;;;;;;5024296;28;20041;-70
2023/01/06 08:05:41;;;;;;;24.45;15.40;;;8.90;99.90;;;;;;5027354;28;20108;-70
2023/01/06 08:08:07;;;;;;;20.45;14.73;;;8.90;99.90;;;;;;5016730;28;20092;-70
2023/01/06 08:10:33;;;;;;;20.40;13.30;;;8.90;99.90;;;;;;5023157;28;20084;-70
2023/01/06 08:12:58;;;;;;;24.45;13.23;;;8.80;99.90;;;;;;5022644;28;20418;-69
2023/01/06 08:15:24;;;;;;;22.00;12.93;;;8.80;99.90;;;;;;5024977;28;20072;-70
2023/01/06 08:17:53;;;;;;;21.40;12.48;;;8.90;99.80;;;;;;5027155;28;20038;-70
2023/01/06 08:20:19;;;;;;;21.27;12.63;;;9.00;99.60;;;;;;5027479;28;20351;-71
2023/01/06 08:22:45;;;;;;;19.65;12.35;;;9.00;99.30;;;;;;5028007;28;20490;-72
2023/01/06 08:25:10;;;;;;;16.20;10.27;;;9.00;99.10;;;;;;5029714;28;20040;-72
2023/01/06 08:27:36;;;;;;;19.77;10.93;;;8.90;99.20;;;;;;5031168;28;20037;-72
2023/01/06 08:30:01;;;;;;;15.20;9.60;;;9.00;99.20;;;;;;5029104;28;20404;-71
2023/01/06 08:32:27;;;;;;;15.07;10.05;;;9.00;99.20;;;;;;5027240;28;20080;-72
2023/01/06 08:34:52;;;;;;;15.13;9.55;;;8.90;99.30;;;;;;5028508;28;20459;-71
2023/01/06 08:37:18;;;;;;;14.10;9.50;;;8.90;99.20;;;;;;5026739;28;20042;-71
2023/01/06 08:39:43;;;;;;;14.57;8.52;;;8.90;99.20;;;;;;5031250;28;20498;-71
2023/01/06 08:42:09;;;;;;;11.15;7.82;;;8.90;99.10;;;;;;5030742;28;20057;-71
2023/01/06 08:44:34;;;;;;;12.80;7.57;;;9.00;98.90;;;;;;5031162;28;20048;-71
2023/01/06 08:47:00;;;;;;;16.20;7.72;;;9.00;98.80;;;;;;5030015;28;20037;-71
2023/01/06 08:49:25;;;;;;;10.18;6.85;;;8.90;98.80;;;;;;5029140;28;20052;-71
2023/01/06 08:51:51;;;;;;;12.13;7.03;;;9.00;98.70;;;;;;5030018;28;20033;-71
2023/01/06 08:54:16;;;;;;;12.77;6.90;;;8.90;98.80;;;;;;5026302;28;20463;-72
2023/01/06 08:56:45;;;;;;;10.57;6.07;;;8.90;98.90;;;;;;5031666;28;20041;-72
2023/01/06 08:59:16;;;;;;;10.18;6.43;;;8.90;99.00;;;;;;5024956;28;20033;-71
2023/01/06 09:01:42;;;;;;;7.63;5.47;;;9.00;99.00;;;;;;5023489;28;20029;-71
2023/01/06 09:04:09;;;;;;;9.43;5.30;;;9.00;98.70;;;;;;5025953;28;20034;-71
2023/01/06 09:06:35;;;;;;;10.02;5.65;;;9.00;98.50;;;;;;5028784;28;20489;-71
2023/01/06 09:09:02;;;;;;;10.68;4.93;;;9.00;98.50;;;;;;5029767;28;20037;-71
2023/01/06 09:11:28;;;;;;;12.05;5.43;;;9.00;98.60;;;;;;5027200;28;20048;-71
2023/01/06 09:13:54;;;;;;;9.00;5.53;;;9.00;98.70;;;;;;5027304;28;20474;-72
2023/01/06 09:16:20;;;;;;;12.05;4.57;;;9.00;98.80;;;;;;5026109;28;20486;-72
2023/01/06 09:18:48;;;;;;;7.68;4.82;;;9.00;98.80;;;;;;5022144;28;20076;-72
2023/01/06 09:21:15;;;;;;;7.15;5.00;;;9.00;98.80;;;;;;5022560;28;20512;-72
2023/01/06 09:23:40;;;;;;;9.25;4.65;;;9.00;98.70;;;;;;5021525;28;20087;-72
2023/01/06 09:26:06;;;;;;;8.43;5.47;;;9.00;98.70;;;;;;5025599;28;20033;-72
2023/01/06 09:28:31;;;;;;;7.28;5.13;;;9.00;98.70;;;;;;5025641;28;20041;-71
2023/01/06 09:30:57;;;;;;;8.15;4.97;;;9.00;98.80;;;;;;5023201;28;20089;-71
2023/01/06 09:33:22;;;;;;;10.02;5.10;;;9.00;99.00;;;;;;5022738;28;20037;-72
2023/01/06 09:35:48;;;;;;;16.17;5.65;;;9.00;99.30;;;;;;5018276;28;20033;-71
2023/01/06 09:38:14;;;;;;;8.40;5.18;;;8.90;99.40;;;;;;5021855;28;20041;-71
2023/01/06 09:41:07;;;;;;;7.75;5.50;;;8.90;99.50;;;;;;5021538;28;20043;-72
2023/01/06 09:43:49;;;;;;;8.95;4.57;;;8.90;99.60;;;;;;5019557;28;20470;-71
2023/01/06 09:46:18;;;;;;;7.13;5.03;;;8.90;99.70;;;;;;5021579;28;20492;-72
2023/01/06 09:48:55;;;;;;;11.98;5.35;;;8.90;99.70;;;;;;5021068;28;20029;-70
2023/01/06 09:51:25;;;;;;;10.77;6.53;;;8.90;99.60;;;;;;5019503;28;20029;-70
2023/01/06 09:53:56;;;;;;;7.53;5.57;;;8.90;99.50;;;;;;5019921;28;20120;-71
2023/01/06 09:56:24;;;;;;;8.82;5.60;;;8.90;99.60;;;;;;5027657;28;20040;-70
2023/01/06 09:59:07;;;;;;;10.73;5.72;;;9.00;99.70;;;;;;5024352;28;20037;-70
2023/01/06 10:01:41;;;;;;;10.23;5.57;;;9.00;99.60;;;;;;5022070;28;20025;-68
2023/01/06 10:04:13;;;;;;;8.77;5.72;;;9.00;99.70;;;;;;5025868;28;20095;-69
2023/01/06 10:06:57;;;;;;;12.23;6.22;;;8.90;99.80;;;;;;5028289;28;20029;-69
2023/01/06 10:09:47;;;;;;;13.85;6.95;;;8.90;99.90;;;;;;5019518;28;20036;-69
2023/01/06 10:12:52;;;;;;;10.02;6.55;;;8.90;99.90;;;;;;5020298;28;20395;-70
2023/01/06 10:15:23;;;;;;;9.98;5.72;;;8.90;99.90;;;;;;5031049;28;20024;-70
2023/01/06 10:18:05;;;;;;;10.45;6.60;;;9.00;99.90;;;;;;5027334;28;20038;-70
2023/01/06 10:21:08;;;;;;;8.80;6.50;;;9.00;99.90;;;;;;5028879;28;20036;-70
2023/01/06 10:23:45;;;;;;;9.27;6.00;;;9.00;99.90;;;;;;5025552;28;20037;-71
2023/01/06 10:26:27;;;;;;;9.13;5.72;;;9.00;99.90;;;;;;5029712;28;20077;-71
2023/01/06 10:28:56;;;;;;;8.10;5.85;;;9.00;99.90;;;;;;5021502;28;20036;-71
2023/01/06 10:31:26;;;;;;;8.25;6.22;;;9.00;99.90;;;;;;5021421;28;20144;-71
2023/01/06 10:33:55;;;;;;;10.00;5.88;;;9.10;99.90;;;;;;5028356;28;20018;-71
2023/01/06 10:36:52;;;;;;;7.53;5.38;;;9.10;99.90;;;;;;5025863;28;20036;-71
2023/01/06 10:39:21;;;;;;;9.82;5.18;;;9.20;99.90;;;;;;5017187;28;20041;-70
2023/01/06 10:44:56;;;;;;;11.43;5.63;;;9.30;99.80;;;;;;5027320;28;20031;-72
2023/01/06 10:47:27;;;;;;;8.57;5.38;;;9.30;99.70;;;;;;5025224;28;20036;-72
2023/01/06 10:49:53;;;;;;;12.13;5.72;;;9.30;99.70;;;;;;5029505;28;20531;-70
2023/01/06 10:52:20;;;;;;;7.88;5.20;;;9.30;99.70;;;;;;5030329;28;20025;-70
2023/01/06 10:54:50;;;;;;;8.05;4.35;;;9.30;99.70;;;;;;5030721;28;20071;-70
2023/01/06 10:57:28;;;;;;;6.88;4.22;;;9.30;99.40;;;;;;5029833;28;20112;-71
2023/01/06 11:00:12;;;;;;;7.32;3.53;;;9.30;99.40;;;;;;5023163;28;20034;-70
2023/01/06 11:02:47;;;;;;;5.03;3.30;;;9.30;99.40;;;;;;5030027;28;20037;-70
2023/01/06 11:05:15;;;;;;;5.88;3.50;;;9.30;99.30;;;;;;5019687;28;20033;-69
2023/01/06 11:07:55;;;;;;;5.40;3.33;;;9.30;99.20;;;;;;5025093;28;20057;-71
2023/01/06 11:10:31;;;;;;;4.63;3.05;;;9.40;99.20;;;;;;5017351;28;20037;-71
2023/01/06 11:12:58;;;;;;;5.95;3.05;;;9.30;98.80;;;;;;5027811;28;20061;-71
2023/01/06 11:15:33;;;;;;;6.68;2.47;;;9.30;98.30;;;;;;5031368;28;20037;-72
2023/01/06 11:17:58;;;;;;;3.10;2.00;;;9.30;98.00;;;;;;5033351;28;20116;-72
2023/01/06 11:20:24;;;;;;;4.65;2.38;;;9.30;97.90;;;;;;5025483;28;20109;-72
2023/01/06 11:22:49;;;;;;;3.25;1.83;;;9.30;97.80;;;;;;5024615;28;20064;-70
2023/01/06 11:25:18;;;;;;;4.80;2.25;;;9.20;97.60;;;;;;5022470;28;20033;-70
2023/01/06 11:27:44;;;;;;;5.68;2.10;;;9.30;97.70;;;;;;5028316;28;20060;-70
2023/01/06 11:30:20;;;;;;;3.67;1.80;;;9.50;97.60;;;;;;5029793;28;20065;-70
2023/01/06 11:32:46;;;;;;;3.47;1.88;;;9.60;96.80;;;;;;5032867;28;20473;-71
2023/01/06 11:35:19;;;;;;;2.97;1.40;;;9.80;96.30;;;;;;5024782;28;20037;-71
2023/01/06 11:37:45;;;;;;;3.55;1.40;;;9.80;96.00;;;;;;5029652;28;20030;-70
2023/01/06 11:40:31;;;;;;;2.30;1.33;;;10.00;95.80;;;;;;5022538;28;20569;-69
2023/01/06 11:43:01;;;;;;;2.25;1.30;;;10.10;95.30;;;;;;5030814;28;20029;-69
2023/01/06 11:45:33;;;;;;;2.35;1.30;;;10.10;95.00;;;;;;5032603;28;20116;-69
2023/01/06 11:48:01;;;;;;;2.47;0.93;;;10.10;94.80;;;;;;5029825;28;20030;-69
2023/01/06 11:50:27;;;;;;;2.10;0.85;;;10.00;94.70;;;;;;5027652;28;20033;-69
2023/01/06 11:53:00;;;;;;;2.55;0.73;;;9.80;92.60;;;;;;5027927;28;20041;-69
2023/01/06 11:55:26;;;;;;;7.30;1.00;;;9.60;91.90;;;;;;5030375;28;20033;-68
2023/01/06 11:58:10;;;;;;;4.35;0.90;;;9.30;91.90;;;;;;5033943;28;20117;-69
2023/01/06 12:00:50;;;;;;;4.72;1.02;;;9.40;91.80;;;;;;5025954;28;20041;-70
2023/01/06 12:03:40;;;;;;;3.60;1.08;;;9.60;91.20;;;;;;5031639;28;20540;-70
2023/01/06 12:06:29;;;;;;;3.33;0.70;;;9.70;91.20;;;;;;5018780;28;20030;-71
2023/01/06 12:09:04;;;;;;;3.15;0.63;;;9.80;91.70;;;;;;5028466;28;20053;-70
2023/01/06 12:11:54;;;;;;;4.32;1.10;;;10.10;91.30;;;;;;5023789;28;20033;-71
2023/01/06 12:14:22;;;;;;;3.53;0.80;;;10.20;90.70;;;;;;5020902;28;20479;-70
2023/01/06 12:17:06;;;;;;;2.92;0.73;;;10.10;90.50;;;;;;5025887;28;20302;-70
2023/01/06 12:19:56;;;;;;;5.13;1.00;;;10.00;90.20;;;;;;5027844;28;20037;-70
2023/01/06 12:22:35;;;;;;;3.08;1.30;;;9.90;90.70;;;;;;5029542;28;20049;-70
2023/01/06 12:25:02;;;;;;;3.05;0.88;;;9.80;90.30;;;;;;5023208;28;20038;-70
2023/01/06 12:27:40;;;;;;;1.42;0.60;;;9.80;89.80;;;;;;5031293;28;20030;-71
2023/01/06 12:30:22;;;;;;;3.63;0.75;;;9.90;88.20;;;;;;5017128;28;20501;-71
2023/01/06 12:32:51;;;;;;;5.70;0.90;;;10.00;87.50;;;;;;5021443;28;20026;-70
2023/01/06 12:35:24;;;;;;;3.97;0.98;;;9.90;86.30;;;;;;5024958;28;20493;-70
2023/01/06 12:37:55;;;;;;;5.82;0.70;;;9.70;87.50;;;;;;5029736;28;20029;-75
2023/01/06 12:40:28;;;;;;;;;;;9.60;88.40;;;;;;5020185;28;20046;-70
2023/01/06 12:43:10;;;;;;;7.35;1.20;;;9.40;88.50;;;;;;5044730;28;19913;-71
2023/01/06 12:45:55;;;;;;;2.20;0.75;;;9.40;88.60;;;;;;5026382;28;20041;-70
2023/01/06 12:48:46;;;;;;;3.28;0.47;;;9.40;88.80;;;;;;5030133;28;20038;-70
2023/01/06 12:51:18;;;;;;;3.88;0.75;;;9.40;87.60;;;;;;5027686;28;20030;-71
2023/01/06 12:53:56;;;;;;;5.28;0.80;;;9.30;87.30;;;;;;5029259;28;20420;-71
2023/01/06 12:56:58;;;;;;;8.63;0.93;;;9.10;87.80;;;;;;5026910;28;20394;-71
2023/01/06 12:59:44;;;;;;;7.20;1.00;;;9.00;89.00;;;;;;5027084;28;20037;-70
2023/01/06 13:02:46;;;;;;;5.38;1.00;;;9.00;88.80;;;;;;5027839;28;20111;-71
2023/01/06 13:05:18;;;;;;;3.95;0.70;;;9.10;88.20;;;;;;5021798;28;20034;-71
2023/01/06 13:08:10;;;;;;;4.88;0.75;;;9.20;88.70;;;;;;5027565;28;20037;-71